Time;durP1;ratioP1;P1;durP2;ratioP2;P2;SDS_P1;SDS_P2;PMS_P1;PMS_P2;Temp;Humidity;BMP_temperature;BMP_pressure;BME280_temperature;BME280_humidity;BME280_pressure;Samples;Min_cycle;Max_cycle;Signal;HPM_P1;HPM_P2
2023/06/28 00:01:06;;;;;;;3.13;2.87;;;15.30;1.00;;;;;;6184610;23;20384;-88
2023/06/28 00:03:33;;;;;;;5.10;2.93;;;;;;;;;;6183627;23;20431;-87
2023/06/28 00:06:02;;;;;;;5.63;2.83;;;15.20;99.90;;;;;;6184284;23;20393;-88
2023/06/28 00:08:29;;;;;;;4.13;3.33;;;;;;;;;;6184542;23;20413;-90
2023/06/28 00:10:57;;;;;;;3.83;3.53;;;;;;;;;;6163020;23;20886;-90
2023/06/28 00:13:27;;;;;;;7.03;3.47;;;15.00;1.00;;;;;;6161391;23;20423;-90
2023/06/28 00:15:54;;;;;;;5.97;2.90;;;;;;;;;;6160182;23;20466;-89
2023/06/28 00:18:21;;;;;;;5.00;3.20;;;;;;;;;;6159567;23;20446;-90
2023/06/28 00:20:49;;;;;;;3.27;2.97;;;;;;;;;;6161196;23;20424;-90
2023/06/28 00:23:17;;;;;;;5.03;2.90;;;15.00;99.90;;;;;;6162431;23;20410;-89
2023/06/28 00:25:44;;;;;;;3.73;3.20;;;;;;;;;;6162207;23;20480;-88
2023/06/28 00:28:12;;;;;;;4.23;2.63;;;;;;;;;;6160868;23;20425;-89
2023/06/28 00:30:39;;;;;;;3.90;2.93;;;15.10;99.90;;;;;;6160839;23;20447;-89
2023/06/28 00:33:06;;;;;;;7.03;3.50;;;;;;;;;;6160972;23;20423;-90
2023/06/28 00:35:33;;;;;;;5.10;4.23;;;15.00;1.00;;;;;;6159668;23;20451;-90
2023/06/28 00:38:01;;;;;;;4.87;4.47;;;;;;;;;;6160144;23;20843;-90
2023/06/28 00:40:30;;;;;;;9.10;4.00;;;15.00;99.90;;;;;;6160507;23;20421;-89
2023/06/28 00:42:57;;;;;;;3.40;3.10;;;14.90;99.90;;;;;;6176318;23;20389;-87
2023/06/28 00:45:23;;;;;;;5.47;3.93;;;15.00;99.90;;;;;;6183948;23;20402;-88
2023/06/28 00:47:51;;;;;;;8.00;3.80;;;15.00;99.90;;;;;;6175725;23;20440;-90
2023/06/28 00:50:19;;;;;;;5.30;4.17;;;14.90;98.80;;;;;;6159596;23;20416;-90
2023/06/28 00:52:46;;;;;;;4.80;3.87;;;;;;;;;;6159262;23;20437;-90
2023/06/28 00:55:14;;;;;;;4.73;3.60;;;14.90;1.00;;;;;;6160109;23;20906;-90
2023/06/28 00:57:43;;;;;;;4.50;3.33;;;14.90;90.50;;;;;;6163028;23;20444;-90
2023/06/28 01:00:12;;;;;;;6.90;3.60;;;14.80;65.40;;;;;;6159925;23;20398;-90
2023/06/28 01:02:41;;;;;;;4.07;3.37;;;;;;;;;;6160981;23;20485;-90
2023/06/28 01:05:09;;;;;;;6.47;3.80;;;14.90;1.00;;;;;;6160069;23;20413;-90
2023/06/28 01:07:37;;;;;;;6.03;4.23;;;14.80;99.90;;;;;;6162228;23;20440;-90
2023/06/28 01:10:05;;;;;;;4.03;3.40;;;14.80;1.00;;;;;;6163299;23;20431;-90
2023/06/28 01:12:33;;;;;;;3.70;3.40;;;;;;;;;;6169636;23;20428;-88
2023/06/28 01:15:03;;;;;;;6.70;4.37;;;;;;;;;;6184180;23;20381;-88
2023/06/28 01:17:31;;;;;;;5.50;3.90;;;;;;;;;;6184187;23;20441;-88
2023/06/28 01:19:58;;;;;;;7.40;4.37;;;;;;;;;;6183802;23;20413;-87
2023/06/28 01:22:26;;;;;;;5.00;4.60;;;14.90;1.00;;;;;;6169295;23;20455;-90
2023/06/28 01:24:56;;;;;;;5.07;4.30;;;14.90;99.90;;;;;;6160369;23;20441;-90
2023/06/28 01:27:23;;;;;;;6.53;4.40;;;;;;;;;;6160559;23;20466;-90
2023/06/28 01:29:56;;;;;;;8.07;3.80;;;15.00;99.90;;;;;;6160193;23;20409;-90
2023/06/28 01:32:24;;;;;;;8.07;4.03;;;;;;;;;;6160303;23;20443;-90
2023/06/28 01:34:51;;;;;;;6.90;3.80;;;;;;;;;;6175049;23;20410;-86
2023/06/28 01:37:19;;;;;;;7.73;3.93;;;15.00;99.90;;;;;;6183499;23;20467;-87
2023/06/28 01:39:47;;;;;;;4.90;3.50;;;15.00;1.00;;;;;;6183846;23;20459;-87
2023/06/28 01:42:17;;;;;;;3.63;3.30;;;14.90;99.90;;;;;;6183884;23;20401;-86
2023/06/28 01:44:44;;;;;;;4.93;3.60;;;;;;;;;;6185569;23;20409;-86
2023/06/28 01:47:11;;;;;;;9.93;3.83;;;;;;;;;;6167316;23;20431;-88
2023/06/28 01:49:39;;;;;;;8.50;3.20;;;;;;;;;;6161432;23;20419;-88
2023/06/28 01:52:06;;;;;;;3.73;3.10;;;15.00;1.00;;;;;;6163632;23;20492;-88
2023/06/28 01:54:33;;;;;;;7.97;3.40;;;14.90;1.00;;;;;;6184750;23;20398;-85
2023/06/28 01:57:00;;;;;;;4.33;3.97;;;14.90;99.90;;;;;;6185733;23;20408;-86
2023/06/28 01:59:30;;;;;;;5.77;3.40;;;14.60;1.00;;;;;;6185851;23;20433;-86
2023/06/28 02:01:58;;;;;;;7.97;3.10;;;14.90;1.00;;;;;;6185954;23;20408;-86
2023/06/28 02:04:25;;;;;;;5.67;2.40;;;15.00;99.90;;;;;;6185806;23;20393;-86
2023/06/28 02:06:51;;;;;;;4.70;3.57;;;14.80;99.90;;;;;;6185726;23;20412;-86
2023/06/28 02:09:18;;;;;;;6.70;3.20;;;14.90;99.90;;;;;;6185950;23;20416;-86
2023/06/28 02:11:45;;;;;;;6.13;3.50;;;14.90;1.00;;;;;;6185750;23;20384;-87
2023/06/28 02:14:12;;;;;;;6.27;3.40;;;14.90;99.90;;;;;;6177015;23;20412;-88
2023/06/28 02:16:41;;;;;;;4.50;3.80;;;14.80;1.00;;;;;;6175672;23;20439;-88
2023/06/28 02:19:12;;;;;;;5.47;4.00;;;14.90;1.00;;;;;;6168783;23;20479;-88
2023/06/28 02:21:41;;;;;;;4.27;3.33;;;14.90;1.00;;;;;;6163338;23;20935;-88
2023/06/28 02:24:08;;;;;;;4.03;3.63;;;14.90;99.90;;;;;;6162656;23;20486;-89
2023/06/28 02:26:35;;;;;;;8.23;3.47;;;14.70;1.00;;;;;;6170325;23;20496;-86
2023/06/28 02:29:02;;;;;;;4.30;3.20;;;14.90;99.90;;;;;;6185550;23;20428;-86
2023/06/28 02:31:29;;;;;;;5.30;4.57;;;14.80;1.00;;;;;;6185795;23;20400;-86
2023/06/28 02:33:57;;;;;;;7.13;3.70;;;14.80;39.30;;;;;;6166559;23;20405;-88
2023/06/28 02:36:24;;;;;;;5.20;3.20;;;14.80;34.90;;;;;;6162641;23;20431;-88
2023/06/28 02:38:51;;;;;;;6.03;4.07;;;14.80;1.00;;;;;;6162426;23;20476;-88
2023/06/28 02:41:18;;;;;;;5.73;3.03;;;14.70;99.90;;;;;;6161741;23;20706;-88
2023/06/28 02:43:45;;;;;;;5.83;3.10;;;14.70;1.00;;;;;;6161812;23;20418;-89
2023/06/28 02:46:12;;;;;;;7.40;3.70;;;14.70;99.90;;;;;;6161074;23;20471;-89
2023/06/28 02:48:38;;;;;;;4.37;3.30;;;14.20;99.90;;;;;;6161580;23;20867;-88
2023/06/28 02:51:07;;;;;;;3.83;3.43;;;14.80;99.90;;;;;;6161621;23;20445;-88
2023/06/28 02:53:33;;;;;;;5.57;3.77;;;14.80;1.00;;;;;;6160963;23;20419;-88
2023/06/28 02:56:01;;;;;;;7.10;4.03;;;;;;;;;;6163644;23;20487;-89
2023/06/28 02:58:27;;;;;;;8.27;4.17;;;14.90;99.90;;;;;;6160702;23;20444;-89
2023/06/28 03:00:54;;;;;;;7.20;4.83;;;14.80;99.90;;;;;;6164179;23;20985;-89
2023/06/28 03:03:22;;;;;;;8.20;5.67;;;15.80;99.90;;;;;;6179711;23;20415;-90
2023/06/28 03:05:52;;;;;;;4.63;3.83;;;14.60;1.00;;;;;;6175413;23;20413;-88
2023/06/28 03:08:20;;;;;;;7.73;4.57;;;14.80;99.90;;;;;;6161827;23;20432;-89
2023/06/28 03:10:47;;;;;;;8.93;3.73;;;14.80;1.00;;;;;;6161187;23;20487;-89
2023/06/28 03:13:14;;;;;;;6.73;3.63;;;14.80;82.70;;;;;;6161066;23;20487;-89
2023/06/28 03:15:41;;;;;;;3.43;3.13;;;14.50;1.00;;;;;;6162015;23;20412;-89
2023/06/28 03:18:08;;;;;;;5.53;3.60;;;;;;;;;;6160914;23;20519;-89
2023/06/28 03:20:35;;;;;;;6.93;3.77;;;;;;;;;;6162774;23;20818;-89
2023/06/28 03:23:03;;;;;;;3.57;3.17;;;14.70;99.90;;;;;;6162226;23;20400;-89
2023/06/28 03:25:32;;;;;;;4.03;3.63;;;14.70;99.90;;;;;;6162874;23;20436;-89
2023/06/28 03:27:58;;;;;;;5.33;4.07;;;14.80;99.90;;;;;;6180609;23;20424;-87
2023/06/28 03:30:25;;;;;;;6.70;4.53;;;;;;;;;;6184738;23;20380;-87
2023/06/28 03:32:53;;;;;;;8.30;4.00;;;;;;;;;;6184875;23;20407;-87
2023/06/28 03:35:20;;;;;;;4.03;3.30;;;14.80;99.90;;;;;;6166763;23;20875;-88
2023/06/28 03:37:50;;;;;;;6.70;4.00;;;14.90;99.90;;;;;;6160976;23;20428;-88
2023/06/28 03:40:17;;;;;;;5.17;4.37;;;14.50;1.00;;;;;;6135696;23;20450;-89
2023/06/28 03:42:45;;;;;;;6.03;3.17;;;14.80;99.90;;;;;;6161448;23;20401;-88
2023/06/28 03:45:12;;;;;;;8.73;3.63;;;14.60;1.00;;;;;;6161836;23;20775;-89
2023/06/28 03:47:40;;;;;;;6.27;2.93;;;;;;;;;;6161236;23;20444;-89
2023/06/28 03:50:07;;;;;;;8.63;4.37;;;14.90;1.00;;;;;;6161332;23;20907;-89
2023/06/28 03:52:34;;;;;;;6.97;3.07;;;14.80;9.40;;;;;;6161272;23;20407;-89
2023/06/28 03:55:02;;;;;;;13.80;3.97;;;14.90;99.90;;;;;;6161664;23;20412;-89
2023/06/28 03:57:30;;;;;;;7.30;4.43;;;;;;;;;;6163704;23;20428;-89
2023/06/28 03:59:58;;;;;;;6.03;3.80;;;;;;;;;;6161321;23;20491;-89
2023/06/28 04:02:26;;;;;;;5.87;3.60;;;14.90;99.90;;;;;;6162042;23;20415;-89
2023/06/28 04:04:54;;;;;;;5.23;4.33;;;14.90;99.90;;;;;;6159700;23;20436;-89
2023/06/28 04:07:24;;;;;;;8.23;4.17;;;14.90;99.90;;;;;;6160669;23;20436;-89
2023/06/28 04:09:51;;;;;;;9.93;4.50;;;15.00;99.90;;;;;;6177705;23;20405;-86
2023/06/28 04:12:18;;;;;;;6.17;4.87;;;15.00;41.50;;;;;;6184536;23;20408;-87
2023/06/28 04:14:45;;;;;;;7.90;5.17;;;15.00;99.90;;;;;;6183347;23;20433;-89
2023/06/28 04:17:14;;;;;;;7.63;3.77;;;14.90;99.90;;;;;;6181184;23;20431;-89
2023/06/28 04:19:41;;;;;;;10.50;5.00;;;15.00;99.90;;;;;;6181642;23;20445;-89
2023/06/28 04:22:08;;;;;;;8.93;5.27;;;15.00;1.00;;;;;;6166074;23;20412;-89
2023/06/28 04:24:35;;;;;;;8.57;5.63;;;15.00;1.00;;;;;;6165706;23;20408;-89
2023/06/28 04:27:02;;;;;;;10.33;4.50;;;15.00;1.00;;;;;;6165111;23;20460;-90
2023/06/28 04:29:29;;;;;;;7.60;4.03;;;15.10;1.00;;;;;;6168241;23;20484;-88
2023/06/28 04:32:02;;;;;;;5.43;4.40;;;15.10;1.00;;;;;;6168224;23;20401;-88
2023/06/28 04:34:31;;;;;;;6.60;3.80;;;15.00;1.00;;;;;;6166181;23;20456;-89
2023/06/28 04:36:58;;;;;;;3.60;3.20;;;15.00;1.00;;;;;;6161595;23;20436;-88
2023/06/28 04:39:25;;;;;;;11.30;5.60;;;14.90;99.90;;;;;;6159859;23;20439;-89
2023/06/28 04:41:52;;;;;;;8.00;5.67;;;15.00;1.00;;;;;;6168054;23;20457;-89
2023/06/28 04:44:20;;;;;;;4.57;3.33;;;15.10;1.00;;;;;;6161225;23;20412;-89
2023/06/28 04:46:50;;;;;;;15.07;4.83;;;15.20;1.00;;;;;;6159314;23;20462;-93
2023/06/28 04:49:18;;;;;;;10.27;6.07;;;;;;;;;;6182750;23;20400;-94
2023/06/28 04:51:49;;;;;;;8.63;3.77;;;15.20;99.90;;;;;;6183711;23;20399;-94
2023/06/28 04:54:19;;;;;;;6.67;4.10;;;;;;;;;;6174775;23;20352;-95
2023/06/28 04:56:47;;;;;;;7.27;4.67;;;;;;;;;;6172157;23;20411;-94
2023/06/28 04:59:15;;;;;;;12.73;4.97;;;;;;;;;;6178921;23;20466;-95
2023/06/28 05:01:51;;;;;;;15.20;7.20;;;15.40;99.90;;;;;;6177582;23;20393;-94
2023/06/28 05:04:32;;;;;;;5.33;4.57;;;15.40;1.00;;;;;;6180833;23;20397;-94
2023/06/28 05:07:37;;;;;;;8.57;4.00;;;15.40;99.90;;;;;;6180939;23;20437;-95
2023/06/28 05:10:20;;;;;;;13.30;5.27;;;15.40;99.90;;;;;;6181297;23;20427;-94
2023/06/28 05:16:52;;;;;;;6.40;3.63;;;15.50;1.00;;;;;;6179216;23;20401;-95
2023/06/28 05:22:26;;;;;;;6.50;3.10;;;15.50;99.90;;;;;;6146535;23;20432;-96
2023/06/28 05:25:19;;;;;;;4.30;3.60;;;15.50;1.00;;;;;;6186416;23;20396;-95
2023/06/28 05:40:21;;;;;;;6.30;4.23;;;15.60;99.90;;;;;;6141303;23;20439;-94
2023/06/28 05:43:32;;;;;;;4.70;3.43;;;15.60;99.90;;;;;;6170281;23;20422;-94
2023/06/28 05:52:18;;;;;;;4.73;3.53;;;15.50;99.90;;;;;;6058672;23;20449;-95
2023/06/28 06:01:20;;;;;;;8.30;3.60;;;;;;;;;;6138178;23;20426;-89
2023/06/28 06:03:46;;;;;;;5.20;3.60;;;15.90;1.00;;;;;;6139205;23;20421;-89
2023/06/28 06:06:14;;;;;;;7.70;3.93;;;15.90;1.00;;;;;;6149396;23;20888;-88
2023/06/28 06:08:42;;;;;;;11.37;4.13;;;15.90;99.90;;;;;;6152303;23;20470;-87
2023/06/28 06:11:09;;;;;;;6.70;3.90;;;15.80;99.90;;;;;;6155880;23;20455;-88
2023/06/28 06:13:36;;;;;;;8.43;3.70;;;15.90;99.90;;;;;;6156054;23;20391;-86
2023/06/28 06:16:03;;;;;;;5.63;3.90;;;15.90;99.90;;;;;;6155844;23;20413;-87
2023/06/28 06:18:30;;;;;;;6.60;3.57;;;15.90;99.90;;;;;;6155663;23;20389;-87
2023/06/28 06:20:56;;;;;;;5.20;3.50;;;15.90;99.90;;;;;;6154295;23;20441;-86
2023/06/28 06:23:23;;;;;;;4.87;3.67;;;15.90;99.90;;;;;;6155836;23;20408;-84
2023/06/28 06:25:52;;;;;;;5.70;3.80;;;16.10;1.00;;;;;;6155938;23;20468;-85
2023/06/28 06:28:19;;;;;;;6.80;3.23;;;16.30;99.90;;;;;;6155383;23;20383;-87
2023/06/28 06:30:46;;;;;;;4.97;2.73;;;16.30;1.00;;;;;;6138960;23;20513;-88
2023/06/28 06:33:13;;;;;;;3.77;2.83;;;16.30;99.90;;;;;;6133024;23;20479;-89
2023/06/28 06:35:40;;;;;;;5.47;2.70;;;16.40;99.90;;;;;;6133147;23;20446;-88
2023/06/28 06:38:07;;;;;;;5.63;3.17;;;;;;;;;;6140340;23;20420;-85
2023/06/28 06:40:34;;;;;;;12.13;3.33;;;17.00;99.90;;;;;;6155512;23;20447;-88
2023/06/28 06:43:02;;;;;;;2.80;2.33;;;16.50;99.90;;;;;;6155678;23;20396;-87
2023/06/28 06:45:29;;;;;;;3.83;3.00;;;16.70;1.00;;;;;;6153931;23;20400;-89
2023/06/28 06:47:56;;;;;;;3.40;2.97;;;16.80;1.00;;;;;;6133505;23;20412;-89
2023/06/28 06:50:23;;;;;;;3.50;2.73;;;16.90;99.90;;;;;;6132907;23;20957;-89
2023/06/28 06:52:51;;;;;;;3.73;2.73;;;16.90;1.00;;;;;;6131411;23;20443;-89
2023/06/28 06:55:18;;;;;;;2.93;2.70;;;17.10;1.00;;;;;;6134018;23;20446;-89
2023/06/28 06:57:45;;;;;;;7.70;2.70;;;17.10;1.00;;;;;;6137435;23;20423;-88
2023/06/28 07:00:16;;;;;;;4.60;2.97;;;17.00;1.00;;;;;;6133546;23;20841;-89
2023/06/28 07:02:43;;;;;;;3.83;3.03;;;17.00;1.00;;;;;;6151236;23;20708;-88
2023/06/28 07:05:10;;;;;;;7.33;3.03;;;16.90;1.00;;;;;;6153070;23;20436;-88
2023/06/28 07:07:36;;;;;;;5.10;2.13;;;17.00;1.00;;;;;;6149957;23;20392;-87
2023/06/28 07:10:04;;;;;;;6.00;3.17;;;16.90;99.90;;;;;;6154037;23;20432;-88
2023/06/28 07:12:32;;;;;;;4.73;2.63;;;17.00;1.00;;;;;;6146194;23;20440;-87
2023/06/28 07:14:59;;;;;;;4.27;2.73;;;17.10;99.90;;;;;;6149651;23;20419;-87
2023/06/28 07:17:27;;;;;;;2.97;2.60;;;17.10;1.00;;;;;;6148705;23;20419;-88
2023/06/28 07:19:54;;;;;;;5.70;3.33;;;17.00;1.00;;;;;;6136725;23;20507;-88
2023/06/28 07:22:21;;;;;;;3.50;2.40;;;17.10;1.00;;;;;;6134480;23;20522;-88
2023/06/28 07:24:47;;;;;;;9.83;2.70;;;17.10;99.90;;;;;;6133003;23;20416;-89
2023/06/28 07:27:14;;;;;;;3.53;2.47;;;17.10;1.00;;;;;;6132317;23;20533;-89
2023/06/28 07:29:41;;;;;;;3.60;2.20;;;17.20;1.00;;;;;;6132264;23;20831;-88
2023/06/28 07:32:09;;;;;;;8.23;2.83;;;17.30;1.00;;;;;;6146090;23;20460;-88
2023/06/28 07:34:38;;;;;;;5.20;3.00;;;17.30;1.00;;;;;;6148651;23;20416;-88
2023/06/28 07:37:06;;;;;;;3.10;2.33;;;17.30;1.00;;;;;;6149250;23;20407;-88
2023/06/28 07:39:34;;;;;;;4.73;3.53;;;17.50;1.00;;;;;;6134066;23;20444;-89
2023/06/28 07:42:00;;;;;;;2.50;2.30;;;17.60;1.00;;;;;;6131700;23;20409;-88
2023/06/28 07:44:27;;;;;;;3.13;2.33;;;17.60;1.00;;;;;;6132574;23;20409;-88
2023/06/28 07:46:54;;;;;;;4.63;2.20;;;17.60;1.00;;;;;;6139293;23;20421;-88
2023/06/28 07:49:21;;;;;;;2.33;2.00;;;17.70;1.00;;;;;;6150111;23;20440;-87
2023/06/28 07:51:49;;;;;;;5.23;2.17;;;17.60;1.00;;;;;;6154486;23;20409;-87
2023/06/28 07:54:16;;;;;;;4.63;1.97;;;17.50;1.00;;;;;;6140494;23;20432;-89
2023/06/28 07:56:43;;;;;;;2.90;2.10;;;;;;;;;;6137706;23;20412;-88
2023/06/28 07:59:10;;;;;;;5.40;2.37;;;15.40;1.00;;;;;;6134129;23;20460;-89
2023/06/28 08:01:37;;;;;;;5.07;2.40;;;17.60;1.00;;;;;;6132637;23;20456;-88
2023/06/28 08:04:04;;;;;;;7.30;2.90;;;17.60;1.00;;;;;;6136453;23;20734;-88
2023/06/28 08:06:31;;;;;;;2.30;2.20;;;17.60;1.00;;;;;;6132402;23;20480;-88
2023/06/28 08:08:59;;;;;;;5.10;2.90;;;18.20;99.90;;;;;;6136621;23;20790;-88
2023/06/28 08:11:26;;;;;;;3.90;2.37;;;17.80;1.00;;;;;;6142430;23;20410;-88
2023/06/28 08:13:53;;;;;;;2.80;2.00;;;17.80;1.00;;;;;;6146888;23;20473;-88
2023/06/28 08:16:20;;;;;;;6.80;2.00;;;17.80;1.00;;;;;;6153210;23;20412;-88
2023/06/28 08:18:47;;;;;;;5.00;2.30;;;18.20;1.00;;;;;;6152963;23;20389;-88
2023/06/28 08:21:15;;;;;;;8.30;2.97;;;17.90;1.00;;;;;;6150123;23;20441;-89
2023/06/28 08:23:41;;;;;;;3.37;2.07;;;17.90;1.00;;;;;;6151221;23;20433;-88
2023/06/28 08:26:10;;;;;;;3.43;2.90;;;17.60;1.00;;;;;;6147164;23;20397;-88
2023/06/28 08:28:36;;;;;;;3.67;2.07;;;17.90;1.00;;;;;;6152023;23;20405;-88
2023/06/28 08:31:04;;;;;;;2.40;2.20;;;18.00;1.00;;;;;;6148636;23;20421;-88
2023/06/28 08:33:31;;;;;;;3.40;2.53;;;18.20;1.00;;;;;;6135510;23;20779;-89
2023/06/28 08:35:58;;;;;;;4.10;2.20;;;18.30;1.00;;;;;;6133659;23;20469;-89
2023/06/28 08:38:25;;;;;;;4.23;2.30;;;18.50;1.00;;;;;;6136657;23;20487;-89
2023/06/28 08:40:52;;;;;;;8.23;3.77;;;18.40;1.00;;;;;;6134992;23;20444;-89
2023/06/28 08:43:22;;;;;;;2.43;2.17;;;18.50;1.00;;;;;;6135333;23;20420;-89
2023/06/28 08:45:49;;;;;;;5.97;2.43;;;18.60;1.00;;;;;;6133288;23;20495;-88
2023/06/28 08:48:18;;;;;;;4.10;2.43;;;18.60;1.00;;;;;;6134720;23;20440;-90
2023/06/28 08:50:45;;;;;;;2.70;2.20;;;18.60;1.00;;;;;;6133899;23;20417;-89
2023/06/28 08:53:18;;;;;;;3.67;1.77;;;18.50;1.00;;;;;;6132521;23;20897;-90
2023/06/28 08:55:50;;;;;;;6.77;2.43;;;18.70;1.00;;;;;;6138964;23;20389;-90
2023/06/28 08:58:17;;;;;;;2.97;2.30;;;18.90;1.00;;;;;;6149376;23;20373;-89
2023/06/28 09:00:45;;;;;;;5.83;2.63;;;18.80;1.00;;;;;;6147356;23;20449;-88
2023/06/28 09:03:15;;;;;;;3.60;2.07;;;18.80;1.00;;;;;;6142352;23;20429;-89
2023/06/28 09:05:42;;;;;;;2.00;1.90;;;18.80;1.00;;;;;;6136128;23;20783;-88
2023/06/28 09:08:10;;;;;;;9.80;2.20;;;18.80;1.00;;;;;;6136525;23;20409;-89
2023/06/28 09:10:39;;;;;;;4.60;2.37;;;18.60;1.00;;;;;;6146580;23;20440;-88
2023/06/28 09:13:07;;;;;;;2.70;2.50;;;18.60;1.00;;;;;;6151529;23;20394;-89
2023/06/28 09:15:35;;;;;;;3.20;1.93;;;18.60;1.00;;;;;;6153995;23;20478;-87
2023/06/28 09:18:04;;;;;;;6.50;2.93;;;18.70;1.00;;;;;;6154055;23;20388;-88
2023/06/28 09:20:32;;;;;;;2.20;2.10;;;18.80;1.00;;;;;;6154076;23;20453;-87
2023/06/28 09:23:00;;;;;;;2.97;2.67;;;18.90;1.00;;;;;;6154550;23;20432;-86
2023/06/28 09:25:29;;;;;;;4.97;2.87;;;18.90;1.00;;;;;;6154151;23;20420;-88
2023/06/28 09:27:56;;;;;;;2.57;1.77;;;19.10;1.00;;;;;;6153266;23;20429;-87
2023/06/28 09:30:24;;;;;;;5.60;1.90;;;19.20;1.00;;;;;;6139558;23;20480;-88
2023/06/28 09:32:51;;;;;;;5.90;2.20;;;;;;;;;;6149667;23;20409;-87
2023/06/28 09:35:20;;;;;;;4.77;2.53;;;19.20;1.00;;;;;;6153777;23;20417;-87
2023/06/28 09:37:50;;;;;;;3.77;1.93;;;;;;;;;;6153334;23;20492;-88
2023/06/28 09:40:18;;;;;;;4.63;2.20;;;;;;;;;;6141772;23;20440;-89
2023/06/28 09:42:46;;;;;;;2.67;2.10;;;;;;;;;;6132087;23;20444;-89
2023/06/28 09:45:28;;;;;;;1.90;1.80;;;19.50;99.90;;;;;;6151569;23;20424;-89
2023/06/28 09:47:56;;;;;;;4.60;2.40;;;;;;;;;;6137109;23;20406;-89
2023/06/28 09:50:34;;;;;;;2.97;2.10;;;19.50;1.00;;;;;;6133005;23;20507;-89
2023/06/28 09:53:02;;;;;;;3.77;2.67;;;;;;;;;;6133357;23;20401;-89
2023/06/28 09:55:29;;;;;;;3.23;2.23;;;19.50;1.00;;;;;;6132706;23;20445;-89
2023/06/28 09:57:57;;;;;;;4.67;1.70;;;;;;;;;;6143020;23;20401;-89
2023/06/28 10:00:26;;;;;;;4.30;2.00;;;19.60;1.00;;;;;;6153398;23;20472;-88
2023/06/28 10:02:53;;;;;;;3.17;2.17;;;;;;;;;;6154393;23;20408;-85
2023/06/28 10:05:21;;;;;;;5.37;2.00;;;19.70;1.00;;;;;;6142649;23;20409;-89
2023/06/28 10:07:51;;;;;;;7.83;2.10;;;19.70;1.00;;;;;;6133399;23;20456;-89
2023/06/28 10:10:19;;;;;;;6.40;2.17;;;;;;;;;;6131967;23;20433;-89
2023/06/28 10:12:46;;;;;;;5.93;3.23;;;19.80;99.90;;;;;;6133008;23;20413;-89
2023/06/28 10:15:21;;;;;;;1.90;1.67;;;20.10;99.90;;;;;;6131757;23;20439;-90
2023/06/28 10:17:49;;;;;;;6.97;2.10;;;;;;;;;;6136742;23;20384;-89
2023/06/28 10:20:16;;;;;;;2.80;2.10;;;20.10;1.00;;;;;;6132246;23;20420;-89
2023/06/28 10:22:44;;;;;;;2.80;2.00;;;19.90;1.00;;;;;;6133114;23;20418;-89
2023/06/28 10:25:13;;;;;;;4.63;2.13;;;19.90;1.00;;;;;;6132270;23;20397;-89
2023/06/28 10:27:41;;;;;;;5.60;1.90;;;20.00;1.00;;;;;;6131985;23;20476;-89
2023/06/28 10:30:09;;;;;;;7.50;2.20;;;19.90;1.00;;;;;;6131768;23;20961;-88
2023/06/28 10:32:37;;;;;;;3.53;2.10;;;;;;;;;;6133039;23;20413;-88
2023/06/28 10:35:04;;;;;;;3.43;1.87;;;;;;;;;;6132399;23;20541;-89
2023/06/28 10:37:32;;;;;;;4.43;2.07;;;;;;;;;;6134356;23;20417;-88
2023/06/28 10:39:59;;;;;;;2.30;2.10;;;20.20;1.00;;;;;;6132899;23;20509;-88
2023/06/28 10:42:38;;;;;;;1.87;1.67;;;20.10;99.90;;;;;;6131487;23;20504;-88
2023/06/28 10:45:06;;;;;;;3.47;2.03;;;20.20;1.00;;;;;;6132682;23;20394;-89
2023/06/28 10:47:35;;;;;;;3.97;2.23;;;20.30;99.90;;;;;;6131178;23;20480;-88
2023/06/28 10:50:10;;;;;;;5.67;2.10;;;20.30;1.00;;;;;;6133521;23;20437;-89
2023/06/28 10:52:37;;;;;;;3.47;2.10;;;;;;;;;;6132805;23;20412;-89
2023/06/28 10:55:11;;;;;;;4.80;2.00;;;;;;;;;;6133858;23;20988;-89
2023/06/28 10:57:40;;;;;;;3.90;2.40;;;20.50;99.90;;;;;;6136291;23;20408;-88
2023/06/28 11:00:30;;;;;;;6.97;2.40;;;20.40;99.90;;;;;;6134365;23;20445;-89
2023/06/28 11:03:03;;;;;;;4.87;3.63;;;20.50;99.90;;;;;;6134162;23;20862;-88
2023/06/28 11:05:53;;;;;;;2.37;1.77;;;20.50;99.90;;;;;;6133725;23;20404;-89
2023/06/28 11:08:20;;;;;;;2.33;2.10;;;20.50;99.90;;;;;;6125575;23;20417;-88
2023/06/28 11:10:48;;;;;;;3.27;1.90;;;20.30;1.00;;;;;;6131921;23;20512;-88
2023/06/28 11:13:32;;;;;;;2.63;2.03;;;20.50;1.00;;;;;;6131687;23;20750;-88
2023/06/28 11:16:07;;;;;;;2.03;1.60;;;20.80;1.00;;;;;;6129924;23;20374;-88
2023/06/28 11:18:35;;;;;;;4.57;2.00;;;20.60;1.00;;;;;;6131244;23;20415;-88
2023/06/28 11:21:02;;;;;;;2.37;2.10;;;20.50;99.90;;;;;;6134279;23;20948;-89
2023/06/28 11:23:38;;;;;;;2.93;2.13;;;20.60;1.00;;;;;;6131100;23;20397;-89
2023/06/28 11:26:07;;;;;;;3.50;2.13;;;20.50;99.90;;;;;;6131377;23;20758;-89
2023/06/28 11:28:36;;;;;;;7.10;1.93;;;20.40;99.90;;;;;;6133041;23;20437;-88
2023/06/28 11:31:14;;;;;;;2.13;1.70;;;20.60;99.90;;;;;;6131866;23;20429;-89
2023/06/28 11:33:41;;;;;;;4.53;1.90;;;;;;;;;;6133463;23;20397;-88
2023/06/28 11:36:10;;;;;;;3.97;1.93;;;20.80;1.00;;;;;;6135738;23;20472;-87
2023/06/28 11:38:37;;;;;;;2.40;2.20;;;;;;;;;;6154941;23;20528;-86
2023/06/28 11:41:04;;;;;;;1.87;1.77;;;;;;;;;;6154713;23;20465;-87
2023/06/28 11:43:31;;;;;;;3.57;2.27;;;21.00;1.00;;;;;;6154868;23;20396;-86
2023/06/28 11:46:00;;;;;;;4.47;1.70;;;20.50;99.90;;;;;;6151936;23;20393;-88
2023/06/28 11:48:28;;;;;;;4.90;1.90;;;20.60;99.90;;;;;;6152499;23;20405;-87
2023/06/28 11:50:59;;;;;;;3.33;2.20;;;20.60;99.90;;;;;;6137213;23;20765;-89
2023/06/28 11:53:27;;;;;;;2.93;2.13;;;20.70;99.90;;;;;;6132043;23;20429;-89
2023/06/28 11:55:55;;;;;;;2.40;1.90;;;;;;;;;;6135442;23;20820;-92
2023/06/28 11:58:30;;;;;;;2.73;2.53;;;20.80;99.90;;;;;;6134552;23;20483;-88
2023/06/28 12:19:05;;;;;;;2.70;2.00;;;21.40;99.90;;;;;;6134179;23;20435;-89
2023/06/28 12:21:34;;;;;;;3.00;2.00;;;21.30;1.00;;;;;;6132682;23;20535;-89
2023/06/28 12:24:16;;;;;;;2.50;2.07;;;21.60;99.90;;;;;;6132332;23;20405;-89
2023/06/28 12:26:45;;;;;;;8.07;2.47;;;21.30;1.00;;;;;;6131409;23;20438;-88
2023/06/28 12:29:12;;;;;;;3.07;1.93;;;21.60;99.90;;;;;;6132094;23;20471;-89
2023/06/28 12:42:04;;;;;;;2.37;2.10;;;21.40;99.90;;;;;;6138587;23;20443;-89
2023/06/28 12:44:32;;;;;;;3.03;1.90;;;21.40;99.90;;;;;;6162365;23;20397;-89
2023/06/28 12:46:59;;;;;;;3.50;2.10;;;21.40;99.90;;;;;;6162147;23;20408;-88
2023/06/28 12:49:37;;;;;;;2.80;1.87;;;21.50;99.90;;;;;;6171958;23;20412;-88
2023/06/28 12:52:04;;;;;;;5.40;1.93;;;21.30;99.90;;;;;;6180321;23;20416;-89
2023/06/28 12:54:31;;;;;;;3.43;2.00;;;21.30;99.90;;;;;;6182200;23;20415;-88
2023/06/28 12:57:00;;;;;;;2.53;2.33;;;21.30;99.90;;;;;;6182706;23;20396;-86
2023/06/28 12:59:31;;;;;;;2.17;1.97;;;21.50;1.00;;;;;;6183619;23;20467;-87
2023/06/28 13:01:58;;;;;;;3.53;2.40;;;21.50;99.90;;;;;;6183586;23;20456;-87
2023/06/28 13:04:27;;;;;;;2.30;2.10;;;21.70;99.90;;;;;;6183446;23;20408;-85
2023/06/28 13:06:54;;;;;;;4.87;2.10;;;21.60;99.90;;;;;;6183440;23;20413;-89
2023/06/28 13:09:21;;;;;;;2.20;2.00;;;21.80;99.90;;;;;;6181871;23;20472;-88
2023/06/28 13:11:50;;;;;;;2.90;2.70;;;22.00;99.90;;;;;;6178371;23;20424;-89
2023/06/28 13:14:17;;;;;;;2.73;1.90;;;22.10;99.90;;;;;;6164170;23;20423;-89
2023/06/28 13:16:46;;;;;;;2.60;1.80;;;23.10;99.90;;;;;;6165557;23;20427;-89
2023/06/28 13:19:13;;;;;;;6.00;2.30;;;21.70;1.00;;;;;;6163149;23;20408;-89
2023/06/28 13:21:40;;;;;;;2.23;2.13;;;22.00;99.90;;;;;;6161832;23;20451;-89
2023/06/28 13:24:08;;;;;;;10.20;2.63;;;21.80;1.00;;;;;;6163030;23;20503;-89
2023/06/28 13:26:35;;;;;;;1.67;1.57;;;22.10;99.90;;;;;;6161858;23;20963;-88
2023/06/28 13:29:02;;;;;;;4.27;1.83;;;22.10;99.90;;;;;;6163944;23;20400;-88
2023/06/28 13:31:29;;;;;;;4.00;2.03;;;;;;;;;;6167631;23;20439;-89
2023/06/28 13:33:59;;;;;;;2.13;1.93;;;22.40;1.00;;;;;;6162840;23;20400;-89
2023/06/28 13:36:26;;;;;;;2.57;2.03;;;22.60;1.00;;;;;;6167425;23;20857;-89
2023/06/28 13:38:54;;;;;;;1.77;1.60;;;;;;;;;;6172167;23;20420;-89
2023/06/28 13:41:24;;;;;;;1.93;1.40;;;22.30;99.90;;;;;;6178713;23;20423;-89
2023/06/28 13:43:51;;;;;;;3.53;2.40;;;;;;;;;;6183584;23;20404;-88
2023/06/28 13:46:22;;;;;;;5.23;1.87;;;22.00;99.90;;;;;;6182371;23;20407;-88
2023/06/28 13:48:49;;;;;;;2.07;1.90;;;;;;;;;;6174302;23;20920;-89
2023/06/28 13:51:18;;;;;;;4.10;1.83;;;21.90;99.90;;;;;;6167905;23;20459;-89
2023/06/28 13:53:47;;;;;;;2.77;1.93;;;;;;;;;;6167893;23;20412;-89
2023/06/28 13:56:16;;;;;;;2.20;1.80;;;;;;;;;;6166109;23;20495;-90
2023/06/28 13:58:46;;;;;;;3.50;2.50;;;22.20;99.90;;;;;;6166595;23;20402;-89
2023/06/28 14:01:13;;;;;;;2.27;2.17;;;;;;;;;;6170512;23;20416;-89
2023/06/28 14:03:41;;;;;;;3.10;2.30;;;;;;;;;;6178553;23;20487;-88
2023/06/28 14:06:08;;;;;;;3.43;2.13;;;;;;;;;;6183800;23;20414;-87
2023/06/28 14:08:36;;;;;;;6.67;2.67;;;22.40;99.90;;;;;;6184942;23;20399;-84
2023/06/28 14:11:09;;;;;;;4.40;2.30;;;;;;;;;;6184692;23;20428;-87
2023/06/28 14:13:37;;;;;;;2.50;2.07;;;;;;;;;;6183315;23;20448;-86
2023/06/28 14:16:04;;;;;;;2.67;2.47;;;;;;;;;;6184326;23;20405;-86
2023/06/28 14:18:31;;;;;;;3.83;2.10;;;;;;;;;;6183929;23;20397;-87
2023/06/28 14:20:59;;;;;;;4.03;2.53;;;;;;;;;;6182026;23;20458;-88